Time;durP1;ratioP1;P1;durP2;ratioP2;P2;SDS_P1;SDS_P2;PMS_P1;PMS_P2;Temp;Humidity;BMP_temperature;BMP_pressure;BME280_temperature;BME280_humidity;BME280_pressure;Samples;Min_cycle;Max_cycle;Signal;HPM_P1;HPM_P2
2024/01/23 00:02:18;;;;;;;1999.90;999.90;;;;;;;;;;5073672;28;20055;-83
2024/01/23 00:04:44;;;;;;;1999.90;999.90;;;;;;;;;;5083880;28;20134;-84
2024/01/23 00:07:11;;;;;;;1999.90;999.90;;;;;;;;;;5078105;28;20050;-83
2024/01/23 00:09:37;;;;;;;1999.90;999.90;;;;;;;;;;5084300;28;20413;-85
2024/01/23 00:12:07;;;;;;;1999.90;999.90;;;;;;;;;;5082271;28;20044;-86
2024/01/23 00:14:34;;;;;;;1999.90;999.90;;;;;;;;;;5077494;28;20052;-86
2024/01/23 00:17:00;;;;;;;1999.90;999.90;;;;;;;;;;5080344;28;20044;-84
2024/01/23 00:19:27;;;;;;;1999.90;999.90;;;;;;;;;;5077117;28;20048;-81
2024/01/23 00:21:54;;;;;;;1999.90;999.90;;;;;;;;;;5089712;28;20052;-85
2024/01/23 00:24:20;;;;;;;1999.90;999.90;;;;;;;;;;5082819;28;20055;-83
2024/01/23 00:26:47;;;;;;;1999.90;999.90;;;;;;;;;;5081140;28;20040;-84
2024/01/23 00:29:15;;;;;;;1999.90;999.90;;;;;;;;;;5085287;28;20044;-85
2024/01/23 00:31:42;;;;;;;1999.90;999.90;;;;;;;;;;5081412;28;20051;-84
2024/01/23 00:34:08;;;;;;;1999.90;999.90;;;;;;;;;;5080119;28;20036;-83
2024/01/23 00:36:35;;;;;;;1999.90;999.90;;;;;;;;;;5080674;28;20055;-85
2024/01/23 00:39:01;;;;;;;1999.90;999.90;;;;;;;;;;5078091;28;20131;-84
2024/01/23 00:41:28;;;;;;;1999.90;999.90;;;;;;;;;;5078119;28;20043;-83
2024/01/23 00:43:54;;;;;;;1999.90;999.90;;;;;;;;;;5073886;28;20044;-85
2024/01/23 00:46:22;;;;;;;1999.90;999.90;;;;;;;;;;5074139;28;20056;-83
2024/01/23 00:48:49;;;;;;;1999.90;999.90;;;;;;;;;;5078068;28;20412;-84
2024/01/23 00:51:15;;;;;;;1999.90;999.90;;;;;;;;;;5082940;28;20044;-84
2024/01/23 00:53:42;;;;;;;1999.90;999.90;;;;;;;;;;5078542;28;20045;-83
2024/01/23 00:56:08;;;;;;;1999.90;999.90;;;;;;;;;;5074688;28;20070;-83
2024/01/23 00:58:35;;;;;;;1999.90;999.90;;;;;;;;;;5074243;28;20047;-85
2024/01/23 01:01:01;;;;;;;1999.90;999.90;;;;;;;;;;5069477;28;20045;-85
2024/01/23 01:03:30;;;;;;;1999.90;999.90;;;;;;;;;;5074810;28;20053;-85
2024/01/23 01:05:57;;;;;;;1999.90;999.90;;;;;;;;;;5074842;28;20159;-83
2024/01/23 01:08:24;;;;;;;1999.90;999.90;;;;;;;;;;5082561;28;20498;-84
2024/01/23 01:10:50;;;;;;;1999.90;999.90;;;;;;;;;;5077963;28;20799;-84
2024/01/23 01:13:17;;;;;;;1999.90;999.90;;;;;;;;;;5078686;28;20637;-84
2024/01/23 01:15:44;;;;;;;1999.90;999.90;;;;;;;;;;5076186;28;20048;-86
2024/01/23 01:18:11;;;;;;;1999.90;999.90;;;;;;;;;;5079623;28;20045;-84
2024/01/23 01:20:39;;;;;;;1999.90;999.90;;;;;;;;;;5083170;28;20044;-84
2024/01/23 01:23:05;;;;;;;1999.90;999.90;;;;;;;;;;5082615;28;20052;-84
2024/01/23 01:25:32;;;;;;;1999.90;999.90;;;;;;;;;;5077223;28;20049;-84
2024/01/23 01:27:59;;;;;;;1999.90;999.90;;;;;;;;;;5076653;28;20051;-83
2024/01/23 01:30:28;;;;;;;1999.90;999.90;;;;;;;;;;5068282;28;20098;-86
2024/01/23 01:32:54;;;;;;;1999.90;999.90;;;;;;;;;;5073914;28;20114;-86
2024/01/23 01:35:21;;;;;;;1999.90;999.90;;;;;;;;;;5084320;28;20048;-83
2024/01/23 01:37:49;;;;;;;1999.90;999.90;;;;;;;;;;5068202;28;20049;-84
2024/01/23 01:40:16;;;;;;;1999.90;999.90;;;;;;;;;;5069106;28;20073;-90
2024/01/23 01:42:43;;;;;;;1999.90;999.90;;;;;;;;;;5069645;28;20048;-84
2024/01/23 01:45:11;;;;;;;1999.90;999.90;;;;;;;;;;5083638;28;20052;-83
2024/01/23 01:47:38;;;;;;;1999.90;999.90;;;;;;;;;;5078939;28;20048;-84
2024/01/23 01:50:06;;;;;;;1999.90;999.90;;;;;;;;;;5078316;28;20044;-83
2024/01/23 01:52:33;;;;;;;1999.90;999.90;;;;;;;;;;5080193;28;20052;-84
2024/01/23 01:55:02;;;;;;;1999.90;999.90;;;;;;;;;;5080485;28;20055;-85
2024/01/23 01:57:30;;;;;;;1999.90;999.90;;;;;;;;;;5069000;28;20118;-84
2024/01/23 01:59:57;;;;;;;1999.90;999.90;;;;;;;;;;5074376;28;20052;-86
2024/01/23 02:02:23;;;;;;;1999.90;999.90;;;;;;;;;;5082469;28;20048;-86
2024/01/23 02:04:50;;;;;;;1999.90;999.90;;;;;;;;;;5081279;28;20068;-84
2024/01/23 02:07:16;;;;;;;1999.90;999.90;;;;;;;;;;5092832;28;20056;-83
2024/01/23 02:09:43;;;;;;;1999.90;999.90;;;;;;;;;;5063730;28;20501;-85
2024/01/23 02:12:11;;;;;;;1999.90;999.90;;;;;;;;;;5086482;28;20041;-84
2024/01/23 02:14:38;;;;;;;1999.90;999.90;;;;;;;;;;5076962;28;20049;-84
2024/01/23 02:17:04;;;;;;;1999.90;999.90;;;;;;;;;;5086958;28;20048;-86
2024/01/23 02:19:31;;;;;;;1999.90;999.90;;;;;;;;;;5079883;28;20040;-84
2024/01/23 02:21:58;;;;;;;1999.90;999.90;;;;;;;;;;5085762;28;20072;-84
2024/01/23 02:24:25;;;;;;;1999.90;999.90;;;;;;;;;;5075430;28;20052;-87
2024/01/23 02:26:52;;;;;;;1999.90;999.90;;;;;;;;;;5070688;28;20155;-83
2024/01/23 02:29:18;;;;;;;1999.90;999.90;;;;;;;;;;5075312;28;20036;-84
2024/01/23 02:31:45;;;;;;;1999.90;999.90;;;;;;;;;;5078377;28;20051;-86
2024/01/23 02:34:12;;;;;;;1999.90;999.90;;;;;;;;;;5078004;28;20044;-84
2024/01/23 02:36:40;;;;;;;1999.90;999.90;;;;;;;;;;5079510;28;20042;-85
2024/01/23 02:39:07;;;;;;;1999.90;999.90;;;;;;;;;;5065191;28;20048;-85
2024/01/23 02:41:35;;;;;;;1999.90;999.90;;;;;;;;;;5083279;28;20135;-83
2024/01/23 02:44:01;;;;;;;1999.90;999.90;;;;;;;;;;5061130;28;20399;-83
2024/01/23 02:46:28;;;;;;;1999.90;999.90;;;;;;;;;;5077473;28;20055;-83
2024/01/23 02:49:00;;;;;;;1999.90;999.90;;;;;;;;;;5080451;28;20040;-82
2024/01/23 02:51:26;;;;;;;1999.90;999.90;;;;;;;;;;5070399;28;20070;-83
2024/01/23 02:53:52;;;;;;;1999.90;999.90;;;;;;;;;;5078338;28;20053;-83
2024/01/23 02:56:19;;;;;;;1999.90;999.90;;;;;;;;;;5079332;28;20045;-83
2024/01/23 02:58:47;;;;;;;1999.90;999.90;;;;;;;;;;5083921;28;20059;-84
2024/01/23 03:01:13;;;;;;;1999.90;999.90;;;;;;;;;;5077527;28;20044;-87
2024/01/23 03:03:40;;;;;;;1999.90;999.90;;;;;;;;;;5071095;28;20037;-85
2024/01/23 03:06:07;;;;;;;1999.90;999.90;;;;;;;;;;5052890;28;20045;-84
2024/01/23 03:08:33;;;;;;;1999.90;999.90;;;;;;;;;;5061804;28;20741;-86
2024/01/23 03:11:00;;;;;;;1999.90;999.90;;;;;;;;;;5058638;28;20041;-83
2024/01/23 03:13:26;;;;;;;1999.90;999.90;;;;;;;;;;5059282;28;20049;-84
2024/01/23 03:15:55;;;;;;;1999.90;999.90;;;;;;;;;;5057949;28;20045;-83
2024/01/23 03:18:22;;;;;;;1999.90;999.90;;;;;;;;;;5055221;28;20049;-83
2024/01/23 03:20:48;;;;;;;1999.90;999.90;;;;;;;;;;5053537;28;20050;-83
2024/01/23 03:23:15;;;;;;;1999.90;999.90;;;;;;;;;;5059090;28;20052;-87
2024/01/23 03:25:41;;;;;;;1999.90;999.90;;;;;;;;;;5061879;28;20054;-84
2024/01/23 03:28:08;;;;;;;1999.90;999.90;;;;;;;;;;5052173;28;20049;-84
2024/01/23 03:30:34;;;;;;;1999.90;999.90;;;;;;;;;;5054475;28;20049;-82
2024/01/23 03:33:03;;;;;;;1999.90;999.90;;;;;;;;;;5062842;28;20508;-83
2024/01/23 03:35:29;;;;;;;1999.90;999.90;;;;;;;;;;5058690;28;20057;-83
2024/01/23 03:37:56;;;;;;;1999.90;999.90;;;;;;;;;;5056568;28;20064;-83
2024/01/23 03:40:22;;;;;;;1999.90;999.90;;;;;;;;;;5042001;28;20053;-83
2024/01/23 03:42:49;;;;;;;1999.90;999.90;;;;;;;;;;5069788;28;20045;-83
2024/01/23 03:45:16;;;;;;;1999.90;999.90;;;;;;;;;;5067376;28;20044;-83
2024/01/23 03:47:42;;;;;;;1999.90;999.90;;;;;;;;;;5053424;28;20064;-85
2024/01/23 03:50:19;;;;;;;1999.90;999.90;;;;;;;;;;5059482;28;20413;-82
2024/01/23 03:52:46;;;;;;;1999.90;999.90;;;;;;;;;;5054304;28;20041;-84
2024/01/23 03:55:13;;;;;;;1999.90;999.90;;;;;;;;;;5057455;28;20512;-83
2024/01/23 03:57:39;;;;;;;1999.90;999.90;;;;;;;;;;5055741;28;20041;-84
2024/01/23 04:00:07;;;;;;;1999.90;999.90;;;;;;;;;;5056286;28;20049;-84
2024/01/23 04:02:37;;;;;;;1999.90;999.90;;;;;;;;;;5062930;28;20248;-85
2024/01/23 04:05:04;;;;;;;1999.90;999.90;;;;;;;;;;5067485;28;20661;-84
2024/01/23 04:07:32;;;;;;;1999.90;999.90;;;;;;;;;;5088515;28;20484;-85
2024/01/23 04:09:58;;;;;;;1999.90;999.90;;;;;;;;;;5082037;28;20057;-84
2024/01/23 04:12:25;;;;;;;1999.90;999.90;;;;;;;;;;5085066;28;20104;-83
2024/01/23 04:14:51;;;;;;;1999.90;999.90;;;;;;;;;;5069658;28;20059;-83
2024/01/23 04:17:18;;;;;;;1999.90;999.90;;;;;;;;;;5078930;28;20404;-83
2024/01/23 04:19:45;;;;;;;1999.90;999.90;;;;;;;;;;5071361;28;20048;-82
2024/01/23 04:22:11;;;;;;;1999.90;999.90;;;;;;;;;;5076196;28;20048;-86
2024/01/23 04:24:40;;;;;;;1999.90;999.90;;;;;;;;;;5079230;28;20051;-85
2024/01/23 04:27:07;;;;;;;1999.90;999.90;;;;;;;;;;5073043;28;20049;-83
2024/01/23 04:29:33;;;;;;;1999.90;999.90;;;;;;;;;;5073034;28;20044;-89
2024/01/23 04:32:00;;;;;;;1999.90;999.90;;;;;;;;;;5075089;28;20125;-84
2024/01/23 04:34:26;;;;;;;1999.90;999.90;;;;;;;;;;5073611;28;20055;-83
2024/01/23 04:36:53;;;;;;;1999.90;999.90;;;;;;;;;;5076424;28;20048;-84
2024/01/23 04:39:19;;;;;;;1999.90;999.90;;;;;;;;;;5078387;28;20048;-83
2024/01/23 04:41:47;;;;;;;1999.90;999.90;;;;;;;;;;5078550;28;20055;-84
2024/01/23 04:44:14;;;;;;;1999.90;999.90;;;;;;;;;;5077260;28;20477;-87
2024/01/23 04:46:40;;;;;;;1999.90;999.90;;;;;;;;;;5076318;28;20048;-83
2024/01/23 04:49:07;;;;;;;1999.90;999.90;;;;;;;;;;5079605;28;20048;-84
2024/01/23 04:51:33;;;;;;;1999.90;999.90;;;;;;;;;;5089776;28;20777;-84
2024/01/23 04:54:00;;;;;;;1999.90;999.90;;;;;;;;;;5074630;28;20060;-84
2024/01/23 04:56:27;;;;;;;1999.90;999.90;;;;;;;;;;5071459;28;20044;-83
2024/01/23 04:58:54;;;;;;;1999.90;999.90;;;;;;;;;;5079664;28;20058;-84
2024/01/23 05:01:21;;;;;;;1999.90;999.90;;;;;;;;;;5081509;28;20049;-83
2024/01/23 05:03:48;;;;;;;1999.90;999.90;;;;;;;;;;5068818;28;20075;-83
2024/01/23 05:06:14;;;;;;;1999.90;999.90;;;;;;;;;;5056663;28;20045;-85
2024/01/23 05:08:41;;;;;;;1999.90;999.90;;;;;;;;;;5043505;28;20053;-85
2024/01/23 05:11:08;;;;;;;1999.90;999.90;;;;;;;;;;5055981;28;20500;-83
2024/01/23 05:13:35;;;;;;;1999.90;999.90;;;;;;;;;;5060611;28;20047;-85
2024/01/23 05:16:02;;;;;;;1999.90;999.90;;;;;;;;;;5066287;28;20045;-82
2024/01/23 05:18:29;;;;;;;1999.90;999.90;;;;;;;;;;5054001;28;20055;-85
2024/01/23 05:20:56;;;;;;;1999.90;999.90;;;;;;;;;;5059886;28;20048;-82
2024/01/23 05:23:24;;;;;;;1999.90;999.90;;;;;;;;;;5060950;28;20134;-81
2024/01/23 05:25:50;;;;;;;1999.90;999.90;;;;;;;;;;5066007;28;20127;-82
2024/01/23 05:28:17;;;;;;;1999.90;999.90;;;;;;;;;;5065785;28;20056;-82
2024/01/23 05:30:43;;;;;;;1999.90;999.90;;;;;;;;;;5064466;28;20049;-83
2024/01/23 05:33:11;;;;;;;1999.90;999.90;;;;;;;;;;5056668;28;20041;-82
2024/01/23 05:35:37;;;;;;;1999.90;999.90;;;;;;;;;;5062524;28;20048;-82
2024/01/23 05:38:04;;;;;;;1999.90;999.90;;;;;;;;;;5053852;28;20051;-83
2024/01/23 05:40:30;;;;;;;1999.90;999.90;;;;;;;;;;5056958;28;20137;-83
2024/01/23 05:42:57;;;;;;;1999.90;999.90;;;;;;;;;;5053333;28;20057;-82
2024/01/23 05:45:23;;;;;;;1999.90;999.90;;;;;;;;;;5054560;28;20040;-82
2024/01/23 05:47:50;;;;;;;1999.90;999.90;;;;;;;;;;5056885;28;20073;-85
2024/01/23 05:50:18;;;;;;;1999.90;999.90;;;;;;;;;;5042922;28;20052;-83
2024/01/23 05:52:44;;;;;;;1999.90;999.90;;;;;;;;;;5057297;28;20052;-82
2024/01/23 05:55:11;;;;;;;1999.90;999.90;;;;;;;;;;5061290;28;20048;-82
2024/01/23 05:57:36;;;;;;;1999.90;999.90;;;;;;;;;;5051760;28;20047;-83
2024/01/23 06:00:03;;;;;;;1999.90;999.90;;;;;;;;;;5059586;28;20043;-83
2024/01/23 06:02:30;;;;;;;1999.90;999.90;;;;;;;;;;5056823;28;20053;-84
2024/01/23 06:04:57;;;;;;;1999.90;999.90;;;;;;;;;;5053338;28;20059;-82
2024/01/23 06:07:24;;;;;;;1999.90;999.90;;;;;;;;;;5050969;28;20041;-83
2024/01/23 06:09:51;;;;;;;1999.90;999.90;;;;;;;;;;5051417;28;20454;-83
2024/01/23 06:12:18;;;;;;;1999.90;999.90;;;;;;;;;;5053498;28;20142;-82
2024/01/23 06:14:44;;;;;;;1999.90;999.90;;;;;;;;;;5048974;28;20045;-84
2024/01/23 06:17:10;;;;;;;1999.90;999.90;;;;;;;;;;5045958;28;20095;-84
2024/01/23 06:19:37;;;;;;;1999.90;999.90;;;;;;;;;;5050247;28;20529;-82
2024/01/23 06:22:05;;;;;;;1999.90;999.90;;;;;;;;;;5053174;28;20053;-82
2024/01/23 06:24:33;;;;;;;1999.90;999.90;;;;;;;;;;5057041;28;20049;-85
2024/01/23 06:26:59;;;;;;;1999.90;999.90;;;;;;;;;;5061226;28;20402;-82
2024/01/23 06:29:26;;;;;;;1999.90;999.90;;;;;;;;;;5051704;28;20052;-82
2024/01/23 06:31:53;;;;;;;1999.90;999.90;;;;;;;;;;5057879;28;20045;-83
2024/01/23 06:34:20;;;;;;;1999.90;999.90;;;;;;;;;;5057948;28;20083;-83
2024/01/23 06:36:46;;;;;;;1999.90;999.90;;;;;;;;;;5053556;28;20052;-82
2024/01/23 06:39:13;;;;;;;1999.90;999.90;;;;;;;;;;5057488;28;20053;-84
2024/01/23 06:41:41;;;;;;;1999.90;999.90;;;;;;;;;;5051933;28;20045;-83
2024/01/23 06:44:07;;;;;;;1999.90;999.90;;;;;;;;;;5055145;28;20041;-82
2024/01/23 06:46:34;;;;;;;1999.90;999.90;;;;;;;;;;5061231;28;20040;-83
2024/01/23 06:49:03;;;;;;;1999.90;999.90;;;;;;;;;;5052851;28;20049;-86
2024/01/23 06:51:30;;;;;;;1999.90;999.90;;;;;;;;;;5057728;28;20049;-83
2024/01/23 06:53:56;;;;;;;1999.90;999.90;;;;;;;;;;5051657;28;20493;-83
2024/01/23 06:56:23;;;;;;;1999.90;999.90;;;;;;;;;;5056315;28;20147;-84
2024/01/23 06:58:51;;;;;;;1999.90;999.90;;;;;;;;;;5058368;28;20058;-84
2024/01/23 07:01:17;;;;;;;1999.90;999.90;;;;;;;;;;5066591;28;20047;-81
2024/01/23 07:03:44;;;;;;;1999.90;999.90;;;;;;;;;;5065677;28;20441;-84
2024/01/23 07:06:10;;;;;;;1999.90;999.90;;;;;;;;;;5073762;28;20044;-84
2024/01/23 07:08:37;;;;;;;1999.90;999.90;;;;;;;;;;5081326;28;20045;-82
2024/01/23 07:11:04;;;;;;;1999.90;999.90;;;;;;;;;;5084035;28;20045;-83
2024/01/23 07:13:30;;;;;;;1999.90;999.90;;;;;;;;;;5079636;28;20071;-83
2024/01/23 07:15:58;;;;;;;1999.90;999.90;;;;;;;;;;5077991;28;20048;-84
2024/01/23 07:18:27;;;;;;;1999.90;999.90;;;;;;;;;;5078885;28;20049;-83
2024/01/23 07:20:54;;;;;;;1999.90;999.90;;;;;;;;;;5069710;28;20051;-85
2024/01/23 07:23:20;;;;;;;1999.90;999.90;;;;;;;;;;5082887;28;20041;-84
2024/01/23 07:25:47;;;;;;;1999.90;999.90;;;;;;;;;;5082836;28;20049;-85
2024/01/23 07:28:13;;;;;;;1999.90;999.90;;;;;;;;;;5078350;28;20056;-84
2024/01/23 07:30:39;;;;;;;1999.90;999.90;;;;;;;;;;5080011;28;20435;-83
2024/01/23 07:33:07;;;;;;;1999.90;999.90;;;;;;;;;;5075903;28;20052;-83
2024/01/23 07:35:34;;;;;;;1999.90;999.90;;;;;;;;;;5080178;28;20114;-84
2024/01/23 07:38:00;;;;;;;1999.90;999.90;;;;;;;;;;5077930;28;20048;-82
2024/01/23 07:40:27;;;;;;;1999.90;999.90;;;;;;;;;;5080875;28;20045;-84
2024/01/23 07:42:53;;;;;;;1999.90;999.90;;;;;;;;;;5086431;28;20054;-84
2024/01/23 07:45:20;;;;;;;1999.90;999.90;;;;;;;;;;5084171;28;20501;-82
2024/01/23 07:47:47;;;;;;;1999.90;999.90;;;;;;;;;;5081951;28;20101;-86
2024/01/23 07:50:18;;;;;;;1999.90;999.90;;;;;;;;;;5084220;28;20131;-86
2024/01/23 07:52:44;;;;;;;1999.90;999.90;;;;;;;;;;5082201;28;20055;-86
2024/01/23 07:55:11;;;;;;;1999.90;999.90;;;;;;;;;;5098230;28;20044;-84
2024/01/23 07:57:37;;;;;;;1999.90;999.90;;;;;;;;;;5084119;28;20040;-85
2024/01/23 08:00:05;;;;;;;1999.90;999.90;;;;;;;;;;5084716;28;20472;-85
2024/01/23 08:02:32;;;;;;;1999.90;999.90;;;;;;;;;;5076980;28;20052;-85
2024/01/23 08:04:59;;;;;;;1999.90;999.90;;;;;;;;;;5083396;28;20131;-84
2024/01/23 08:07:27;;;;;;;1999.90;999.90;;;;;;;;;;5083224;28;20048;-85
2024/01/23 08:09:54;;;;;;;1999.90;999.90;;;;;;;;;;5080976;28;20127;-85
2024/01/23 08:12:21;;;;;;;1999.90;999.90;;;;;;;;;;5085259;28;20135;-86
2024/01/23 08:14:47;;;;;;;1999.90;999.90;;;;;;;;;;5081620;28;20056;-84
2024/01/23 08:17:14;;;;;;;1999.90;999.90;;;;;;;;;;5077102;28;20045;-84
2024/01/23 08:19:50;;;;;;;1999.90;999.90;;;;;;;;;;5075823;28;20382;-84
2024/01/23 08:22:16;;;;;;;1999.90;999.90;;;;;;;;;;5081417;28;20058;-85
2024/01/23 08:24:45;;;;;;;1999.90;999.90;;;;;;;;;;5075091;28;20123;-84
2024/01/23 08:27:11;;;;;;;1999.90;999.90;;;;;;;;;;5078515;28;20050;-84
2024/01/23 08:29:38;;;;;;;1999.90;999.90;;;;;;;;;;5079408;28;20041;-85
2024/01/23 08:32:05;;;;;;;1999.90;999.90;;;;;;;;;;5088872;28;20058;-84
2024/01/23 08:34:31;;;;;;;1999.90;999.90;;;;;;;;;;5082060;28;20045;-83
2024/01/23 08:36:58;;;;;;;1999.90;999.90;;;;;;;;;;5078117;28;20056;-84
2024/01/23 08:39:24;;;;;;;1999.90;999.90;;;;;;;;;;5090828;28;20051;-85
2024/01/23 08:41:53;;;;;;;1999.90;999.90;;;;;;;;;;5085731;28;20051;-85
2024/01/23 08:44:21;;;;;;;1999.90;999.90;;;;;;;;;;5072049;28;20076;-84
2024/01/23 08:46:48;;;;;;;1999.90;999.90;;;;;;;;;;5078487;28;20096;-83
2024/01/23 08:49:27;;;;;;;1999.90;999.90;;;;;;;;;;5082178;28;20480;-86
2024/01/23 08:51:53;;;;;;;1999.90;999.90;;;;;;;;;;5092363;28;20097;-83
2024/01/23 08:54:20;;;;;;;1999.90;999.90;;;;;;;;;;5084190;28;20060;-85
2024/01/23 08:56:47;;;;;;;1999.90;999.90;;;;;;;;;;5079774;28;20139;-82
2024/01/23 08:59:15;;;;;;;1999.90;999.90;;;;;;;;;;5084573;28;20040;-83
2024/01/23 09:01:42;;;;;;;1999.90;999.90;;;;;;;;;;5087414;28;20124;-84
2024/01/23 09:04:09;;;;;;;1999.90;999.90;;;;;;;;;;5078764;28;20052;-84
2024/01/23 09:06:35;;;;;;;1999.90;999.90;;;;;;;;;;5080450;28;20082;-87
2024/01/23 09:09:02;;;;;;;1999.90;999.90;;;;;;;;;;5075052;28;20045;-83
2024/01/23 09:11:28;;;;;;;1999.90;999.90;;;;;;;;;;5075206;28;20503;-83
2024/01/23 09:13:55;;;;;;;1999.90;999.90;;;;;;;;;;5074413;28;20510;-84
2024/01/23 09:16:24;;;;;;;1999.90;999.90;;;;;;;;;;5078794;28;20484;-83
2024/01/23 09:19:03;;;;;;;1999.90;999.90;;;;;;;;;;5078524;28;20055;-83
2024/01/23 09:21:29;;;;;;;1999.90;999.90;;;;;;;;;;5084697;28;20046;-82
2024/01/23 09:23:56;;;;;;;1999.90;999.90;;;;;;;;;;5088684;28;20048;-84
2024/01/23 09:26:23;;;;;;;1999.90;999.90;;;;;;;;;;5081980;28;20071;-85
2024/01/23 09:28:50;;;;;;;1999.90;999.90;;;;;;;;;;5085897;28;20044;-83
2024/01/23 09:31:16;;;;;;;1999.90;999.90;;;;;;;;;;5087315;28;20392;-83
2024/01/23 09:33:44;;;;;;;1999.90;999.90;;;;;;;;;;5088043;28;20050;-85
2024/01/23 09:36:11;;;;;;;1999.90;999.90;;;;;;;;;;5076336;28;20053;-84
2024/01/23 09:38:37;;;;;;;1999.90;999.90;;;;;;;;;;5071548;28;20076;-83
2024/01/23 09:41:11;;;;;;;1999.90;999.90;;;;;;;;;;5078380;28;20048;-84
2024/01/23 09:43:39;;;;;;;1999.90;999.90;;;;;;;;;;5074459;28;20049;-84
2024/01/23 09:46:11;;;;;;;1999.90;999.90;;;;;;;;;;5083427;28;20048;-84
2024/01/23 09:48:37;;;;;;;1999.90;999.90;;;;;;;;;;5073673;28;20048;-83
2024/01/23 09:51:11;;;;;;;1999.90;999.90;;;;;;;;;;5068389;28;20056;-85
2024/01/23 09:53:38;;;;;;;1999.90;999.90;;;;;;;;;;5081688;28;20127;-86
2024/01/23 09:56:05;;;;;;;1999.90;999.90;;;;;;;;;;5080664;28;20058;-84
2024/01/23 09:58:32;;;;;;;1999.90;999.90;;;;;;;;;;5075985;28;20126;-84
2024/01/23 10:00:59;;;;;;;1999.90;999.90;;;;;;;;;;5081666;28;20043;-84
2024/01/23 10:03:27;;;;;;;1999.90;999.90;;;;;;;;;;5081402;28;20044;-84
2024/01/23 10:05:54;;;;;;;1999.90;999.90;;;;;;;;;;5057903;28;20053;-83
2024/01/23 10:08:25;;;;;;;1999.90;999.90;;;;;;;;;;5061485;28;20037;-84
2024/01/23 10:10:57;;;;;;;1999.90;999.90;;;;;;;;;;5050037;28;20053;-83
2024/01/23 10:13:24;;;;;;;1999.90;999.90;;;;;;;;;;5066951;28;20056;-83
2024/01/23 10:15:52;;;;;;;1999.90;999.90;;;;;;;;;;5060932;28;20060;-86
2024/01/23 10:18:24;;;;;;;1999.90;999.90;;;;;;;;;;5065343;28;20131;-84
2024/01/23 10:20:50;;;;;;;1999.90;999.90;;;;;;;;;;5055279;28;20049;-83
2024/01/23 10:23:17;;;;;;;1999.90;999.90;;;;;;;;;;5043560;28;20520;-84
2024/01/23 10:25:45;;;;;;;1999.90;999.90;;;;;;;;;;5060388;28;20049;-83
2024/01/23 10:28:13;;;;;;;1999.90;999.90;;;;;;;;;;5057452;28;20052;-84
2024/01/23 10:30:40;;;;;;;1999.90;999.90;;;;;;;;;;5064695;28;20041;-84
2024/01/23 10:33:10;;;;;;;1999.90;999.90;;;;;;;;;;5066684;28;20108;-85
2024/01/23 10:35:36;;;;;;;1999.90;999.90;;;;;;;;;;5072123;28;20127;-85
2024/01/23 10:38:05;;;;;;;1999.90;999.90;;;;;;;;;;5068854;28;20100;-85
2024/01/23 10:40:32;;;;;;;1999.90;999.90;;;;;;;;;;5064077;28;20053;-85
2024/01/23 10:43:01;;;;;;;1999.90;999.90;;;;;;;;;;5065299;28;20104;-83
2024/01/23 10:45:28;;;;;;;1999.90;999.90;;;;;;;;;;5064666;28;20128;-84
2024/01/23 10:47:57;;;;;;;1999.90;999.90;;;;;;;;;;5051839;28;20128;-86
2024/01/23 10:50:36;;;;;;;1999.90;999.90;;;;;;;;;;5069602;28;20104;-84
2024/01/23 10:53:06;;;;;;;1999.90;999.90;;;;;;;;;;5070886;28;20131;-84
2024/01/23 10:55:33;;;;;;;1999.90;999.90;;;;;;;;;;5081153;28;20067;-86
2024/01/23 10:58:03;;;;;;;1999.90;999.90;;;;;;;;;;5056134;28;21174;-83
2024/01/23 11:00:32;;;;;;;1999.90;999.90;;;;;;;;;;5053543;28;20053;-83
2024/01/23 11:03:00;;;;;;;1999.90;999.90;;;;;;;;;;5065477;28;20041;-84
2024/01/23 11:05:29;;;;;;;1999.90;999.90;;;;;;;;;;5070828;28;20059;-84
2024/01/23 11:07:59;;;;;;;1999.90;999.90;;;;;;;;;;5077429;28;20512;-85
2024/01/23 11:10:31;;;;;;;1999.90;999.90;;;;;;;;;;5077949;28;20045;-83
2024/01/23 11:13:11;;;;;;;1999.90;999.90;;;;;;;;;;5077860;28;20045;-84
2024/01/23 11:15:38;;;;;;;1999.90;999.90;;;;;;;;;;5077914;28;20044;-85
2024/01/23 11:18:41;;;;;;;1999.90;999.90;;;;;;;;;;5080233;28;20050;-85
2024/01/23 11:21:14;;;;;;;1999.90;999.90;;;;;;;;;;5033974;28;20093;-85
2024/01/23 11:23:42;;;;;;;1999.90;999.90;;;;;;;;;;5077668;28;20045;-85
2024/01/23 11:26:19;;;;;;;1999.90;999.90;;;;;;;;;;5077457;28;20040;-83
2024/01/23 11:28:48;;;;;;;1999.90;999.90;;;;;;;;;;5076219;28;20055;-83
2024/01/23 11:31:17;;;;;;;1999.90;999.90;;;;;;;;;;5072266;28;20048;-86
2024/01/23 11:33:44;;;;;;;1999.90;999.90;;;;;;;;;;5064300;28;20087;-82
2024/01/23 11:36:12;;;;;;;1999.90;999.90;;;;;;;;;;5078262;28;20059;-85
2024/01/23 11:38:42;;;;;;;1999.90;999.90;;;;;;;;;;5069514;28;20048;-85
2024/01/23 11:41:13;;;;;;;1999.90;999.90;;;;;;;;;;5069941;28;20056;-87
2024/01/23 11:43:41;;;;;;;1999.90;999.90;;;;;;;;;;5075897;28;20050;-83
2024/01/23 11:46:13;;;;;;;1999.90;999.90;;;;;;;;;;5075121;28;20051;-83
2024/01/23 11:48:40;;;;;;;1999.90;999.90;;;;;;;;;;5074355;28;20109;-85
2024/01/23 11:51:07;;;;;;;1999.90;999.90;;;;;;;;;;5072746;28;20045;-84
2024/01/23 11:53:34;;;;;;;1999.90;999.90;;;;;;;;;;5076043;28;20504;-83
2024/01/23 11:56:01;;;;;;;1999.90;999.90;;;;;;;;;;5072680;28;20052;-84
2024/01/23 11:58:28;;;;;;;1999.90;999.90;;;;;;;;;;5072774;28;20040;-82
2024/01/23 12:00:56;;;;;;;1999.90;999.90;;;;;;;;;;5061502;28;20048;-84
2024/01/23 12:03:24;;;;;;;1999.90;999.90;;;;;;;;;;5079905;28;20048;-84
2024/01/23 12:05:52;;;;;;;1999.90;999.90;;;;;;;;;;5064677;28;20064;-83
2024/01/23 12:08:19;;;;;;;1999.90;999.90;;;;;;;;;;5061334;28;20048;-86
2024/01/23 12:10:45;;;;;;;1999.90;999.90;;;;;;;;;;5056231;28;20045;-84
2024/01/23 12:13:12;;;;;;;1999.90;999.90;;;;;;;;;;5066850;28;20052;-86
2024/01/23 12:15:38;;;;;;;1999.90;999.90;;;;;;;;;;5076133;28;20503;-85
2024/01/23 12:18:05;;;;;;;1999.90;999.90;;;;;;;;;;5059749;28;20048;-84
2024/01/23 12:20:33;;;;;;;1999.90;999.90;;;;;;;;;;5056617;28;20055;-81
2024/01/23 12:23:00;;;;;;;1999.90;999.90;;;;;;;;;;5061406;28;20489;-82
2024/01/23 12:25:26;;;;;;;1999.90;999.90;;;;;;;;;;5063338;28;20045;-83
2024/01/23 12:27:53;;;;;;;1999.90;999.90;;;;;;;;;;5058410;28;20498;-82
2024/01/23 12:30:19;;;;;;;1999.90;999.90;;;;;;;;;;5055677;28;20063;-85
2024/01/23 12:32:47;;;;;;;1999.90;999.90;;;;;;;;;;5056668;28;20049;-84
2024/01/23 12:35:14;;;;;;;1999.90;999.90;;;;;;;;;;5075315;28;20447;-84
2024/01/23 12:37:42;;;;;;;1999.90;999.90;;;;;;;;;;5059997;28;20049;-87
2024/01/23 12:40:10;;;;;;;1999.90;999.90;;;;;;;;;;5060826;28;20127;-85
2024/01/23 12:42:40;;;;;;;1999.90;999.90;;;;;;;;;;5067209;28;20515;-84
2024/01/23 12:45:10;;;;;;;1999.90;999.90;;;;;;;;;;5061151;28;20044;-83
2024/01/23 12:47:36;;;;;;;1999.90;999.90;;;;;;;;;;5057512;28;20045;-84
2024/01/23 12:50:03;;;;;;;1999.90;999.90;;;;;;;;;;5057344;28;20045;-83
2024/01/23 12:52:30;;;;;;;1999.90;999.90;;;;;;;;;;5052780;28;20049;-85
2024/01/23 12:54:58;;;;;;;1999.90;999.90;;;;;;;;;;5062933;28;20036;-87
2024/01/23 12:57:24;;;;;;;1999.90;999.90;;;;;;;;;;5051088;28;20050;-83
2024/01/23 12:59:51;;;;;;;1999.90;999.90;;;;;;;;;;5056963;28;20049;-84
2024/01/23 13:02:18;;;;;;;1999.90;999.90;;;;;;;;;;5064296;28;20127;-82
2024/01/23 13:04:44;;;;;;;1999.90;999.90;;;;;;;;;;5065661;28;20052;-83
2024/01/23 13:07:11;;;;;;;1999.90;999.90;;;;;;;;;;5076575;28;20051;-85
2024/01/23 13:09:37;;;;;;;1999.90;999.90;;;;;;;;;;5077241;28;20372;-84
2024/01/23 13:12:06;;;;;;;1999.90;999.90;;;;;;;;;;5070802;28;20052;-84
2024/01/23 13:14:34;;;;;;;1999.90;999.90;;;;;;;;;;5074004;28;20123;-84
2024/01/23 13:17:01;;;;;;;1999.90;999.90;;;;;;;;;;5076628;28;20053;-83
2024/01/23 13:19:27;;;;;;;1999.90;999.90;;;;;;;;;;5075830;28;20079;-84
2024/01/23 13:21:54;;;;;;;1999.90;999.90;;;;;;;;;;5081876;28;20048;-85
2024/01/23 13:24:20;;;;;;;1999.90;999.90;;;;;;;;;;5082472;28;20047;-85
2024/01/23 13:26:47;;;;;;;1999.90;999.90;;;;;;;;;;5082799;28;20047;-84
2024/01/23 13:29:15;;;;;;;1999.90;999.90;;;;;;;;;;5079364;28;20144;-85
2024/01/23 13:31:45;;;;;;;1999.90;999.90;;;;;;;;;;5074855;28;20127;-82
2024/01/23 13:34:12;;;;;;;1999.90;999.90;;;;;;;;;;5078916;28;20044;-83
2024/01/23 13:36:38;;;;;;;1999.90;999.90;;;;;;;;;;5076366;28;20523;-86
2024/01/23 13:39:06;;;;;;;1999.90;999.90;;;;;;;;;;5075035;28;20052;-83
2024/01/23 13:41:33;;;;;;;1999.90;999.90;;;;;;;;;;5071485;28;20512;-86
2024/01/23 13:43:59;;;;;;;1999.90;999.90;;;;;;;;;;5079768;28;20048;-83